Time;durP1;ratioP1;P1;durP2;ratioP2;P2;SDS_P1;SDS_P2;PMS_P1;PMS_P2;Temp;Humidity;BMP_temperature;BMP_pressure;BME280_temperature;BME280_humidity;BME280_pressure;Samples;Min_cycle;Max_cycle;Signal;HPM_P1;HPM_P2
2023/10/02 00:03:39;;;;;;;15.48;8.45;;;;;;;;;;5011723;28;20588;-67
2023/10/02 00:06:04;;;;;;;19.77;10.27;;;;;;;;;;5009749;28;20186;-67
2023/10/02 00:08:40;;;;;;;18.35;9.57;;;;;;;;;;5012066;28;20207;-66
2023/10/02 00:11:35;;;;;;;16.77;9.18;;;;;;;;;;5011655;28;20178;-67
2023/10/02 00:14:18;;;;;;;19.45;10.02;;;;;;;;;;5011879;28;20199;-67
2023/10/02 00:16:40;;;;;;;17.27;9.68;;;;;;;;;;5011207;28;20183;-67
2023/10/02 00:19:18;;;;;;;20.45;8.70;;;;;;;;;;5013457;28;20175;-67
2023/10/02 00:21:44;;;;;;;20.75;9.02;;;;;;;;;;5010111;28;20261;-66
2023/10/02 00:24:09;;;;;;;15.85;8.23;;;;;;;;;;5010060;28;20229;-67
2023/10/02 00:26:35;;;;;;;15.13;8.63;;;;;;;;;;5011815;28;20674;-67
2023/10/02 00:29:02;;;;;;;16.15;8.77;;;;;;;;;;5011765;28;20234;-67
2023/10/02 00:31:36;;;;;;;20.08;8.90;;;;;;;;;;5012405;28;20249;-67
2023/10/02 00:34:01;;;;;;;16.95;9.25;;;;;;;;;;5012687;28;20206;-67
2023/10/02 00:36:29;;;;;;;20.40;9.85;;;;;;;;;;5011899;28;20241;-67
2023/10/02 00:38:58;;;;;;;17.40;9.98;;;;;;;;;;5005789;28;20262;-67
2023/10/02 00:41:24;;;;;;;14.95;8.55;;;;;;;;;;5008944;28;20876;-67
2023/10/02 00:43:49;;;;;;;17.58;9.98;;;;;;;;;;5011209;28;20257;-67
2023/10/02 00:46:23;;;;;;;16.17;8.18;;;;;;;;;;5012283;28;20171;-66
2023/10/02 00:48:49;;;;;;;18.50;9.38;;;;;;;;;;5012602;28;20227;-67
2023/10/02 00:51:14;;;;;;;17.27;9.13;;;;;;;;;;5012723;28;20202;-67
2023/10/02 00:53:53;;;;;;;17.52;8.95;;;;;;;;;;5011518;28;20261;-68
2023/10/02 00:56:27;;;;;;;16.52;9.15;;;;;;;;;;5011042;28;20171;-66
2023/10/02 00:59:14;;;;;;;14.10;7.90;;;;;;;;;;5009841;28;20242;-67
2023/10/02 01:01:41;;;;;;;15.63;8.82;;;;;;;;;;5011604;28;20175;-67
2023/10/02 01:04:09;;;;;;;20.10;8.35;;;;;;;;;;5009881;28;20206;-67
2023/10/02 01:06:54;;;;;;;17.65;9.00;;;;;;;;;;5011946;28;20233;-68
2023/10/02 01:09:19;;;;;;;13.48;7.85;;;;;;;;;;5012056;28;20179;-68
2023/10/02 01:11:45;;;;;;;16.88;8.80;;;;;;;;;;5011334;28;20599;-68
2023/10/02 01:14:11;;;;;;;16.13;8.93;;;;;;;;;;5009477;28;20251;-68
2023/10/02 01:16:36;;;;;;;16.95;8.68;;;;;;;;;;5010343;28;20191;-67
2023/10/02 01:19:04;;;;;;;18.08;8.52;;;;;;;;;;5010424;28;20186;-68
2023/10/02 01:21:29;;;;;;;17.27;8.70;;;;;;;;;;5014637;28;20183;-68
2023/10/02 01:24:06;;;;;;;17.75;8.75;;;;;;;;;;5019839;28;20237;-67
2023/10/02 01:26:40;;;;;;;17.33;8.85;;;;;;;;;;5018380;28;20183;-67
2023/10/02 01:29:06;;;;;;;19.23;8.88;;;;;;;;;;5018292;28;20182;-68
2023/10/02 01:31:32;;;;;;;19.13;9.15;;;;;;;;;;5016812;28;20179;-68
2023/10/02 01:33:59;;;;;;;19.25;9.68;;;;;;;;;;5011706;28;20199;-68
2023/10/02 01:36:28;;;;;;;16.23;9.60;;;;;;;;;;5009807;28;20190;-66
2023/10/02 01:38:59;;;;;;;15.82;8.73;;;;;;;;;;5011065;28;20249;-66
2023/10/02 01:41:26;;;;;;;14.60;7.82;;;;;;;;;;5010914;28;20179;-67
2023/10/02 01:43:52;;;;;;;16.33;9.35;;;;;;;;;;5012897;28;20627;-67
2023/10/02 01:46:17;;;;;;;15.35;9.25;;;;;;;;;;5011047;28;20650;-67
2023/10/02 01:48:48;;;;;;;15.35;9.10;;;;;;;;;;5010689;28;20313;-67
2023/10/02 01:51:25;;;;;;;17.10;9.68;;;;;;;;;;5011928;28;20172;-68
2023/10/02 01:53:54;;;;;;;16.60;9.07;;;;;;;;;;5007517;28;20584;-67
2023/10/02 01:56:20;;;;;;;17.83;9.25;;;;;;;;;;5008369;28;20182;-68
2023/10/02 01:58:48;;;;;;;16.92;8.38;;;;;;;;;;5009549;28;20183;-66
2023/10/02 02:01:14;;;;;;;17.00;9.77;;;;;;;;;;5012611;28;20183;-67
2023/10/02 02:03:41;;;;;;;17.15;9.68;;;;;;;;;;5011605;28;20249;-67
2023/10/02 02:06:09;;;;;;;19.80;9.18;;;;;;;;;;5009461;28;20187;-67
2023/10/02 02:08:35;;;;;;;16.83;8.60;;;;;;;;;;5010199;28;20289;-67
2023/10/02 02:11:14;;;;;;;16.30;8.85;;;;;;;;;;5011249;28;20619;-67
2023/10/02 02:13:44;;;;;;;18.67;9.50;;;;;;;;;;5012743;28;20237;-67
2023/10/02 02:16:14;;;;;;;19.55;9.50;;;;;;;;;;5011920;28;20175;-68
2023/10/02 02:18:41;;;;;;;18.25;9.45;;;;;;;;;;5010712;28;20523;-68
2023/10/02 02:21:10;;;;;;;21.65;10.02;;;;;;;;;;5012164;28;20202;-68
2023/10/02 02:23:35;;;;;;;20.83;9.88;;;;;;;;;;5009563;28;20780;-68
2023/10/02 02:26:01;;;;;;;18.67;9.70;;;;;;;;;;5009208;28;20218;-68
2023/10/02 02:28:26;;;;;;;15.57;8.90;;;;;;;;;;5009829;28;20208;-67
2023/10/02 02:30:55;;;;;;;21.05;9.98;;;;;;;;;;5009197;28;20245;-67
2023/10/02 02:33:34;;;;;;;18.23;10.00;;;;;;;;;;5008414;28;20218;-67
2023/10/02 02:36:05;;;;;;;21.10;9.98;;;;;;;;;;5008440;28;20637;-67
2023/10/02 02:38:33;;;;;;;19.55;9.18;;;;;;;;;;5009414;28;20186;-67
2023/10/02 02:41:05;;;;;;;15.52;8.73;;;;;;;;;;5014910;28;20178;-68
2023/10/02 02:43:30;;;;;;;21.77;8.80;;;;;;;;;;5012135;28;20253;-69
2023/10/02 02:45:55;;;;;;;22.77;9.60;;;;;;;;;;5012235;28;20187;-67
2023/10/02 02:48:20;;;;;;;17.98;9.50;;;;;;;;;;5011040;28;20704;-67
2023/10/02 02:50:47;;;;;;;22.55;10.02;;;;;;;;;;5011630;28;20218;-67
2023/10/02 02:53:21;;;;;;;21.83;9.73;;;;;;;;;;5012198;28;20739;-66
2023/10/02 02:56:18;;;;;;;17.23;9.35;;;;;;;;;;5012549;28;20190;-67
2023/10/02 02:58:50;;;;;;;22.40;9.57;;;;;;;;;;5012874;28;20257;-68
2023/10/02 03:01:21;;;;;;;17.83;9.13;;;;;;;;;;5013802;28;20244;-67
2023/10/02 03:03:48;;;;;;;19.40;10.35;;;;;;;;;;5013825;28;20202;-68
2023/10/02 03:06:13;;;;;;;19.88;9.57;;;;;;;;;;5011858;28;20198;-67
2023/10/02 03:08:39;;;;;;;24.20;11.13;;;;;;;;;;5009713;28;20580;-67
2023/10/02 03:11:06;;;;;;;22.58;9.68;;;;;;;;;;5012313;28;20183;-67
2023/10/02 03:13:34;;;;;;;15.15;9.02;;;;;;;;;;5012084;28;20209;-68
2023/10/02 03:16:08;;;;;;;21.33;10.35;;;;;;;;;;5012109;28;20561;-67
2023/10/02 03:18:36;;;;;;;17.38;8.50;;;;;;;;;;5013681;28;20187;-67
2023/10/02 03:21:14;;;;;;;19.25;9.00;;;;;;;;;;5014715;28;20676;-67
2023/10/02 03:23:42;;;;;;;20.15;8.93;;;;;;;;;;5013994;28;20573;-67
2023/10/02 03:26:21;;;;;;;18.02;8.77;;;;;;;;;;5010823;28;20218;-68
2023/10/02 03:28:47;;;;;;;15.68;8.55;;;;;;;;;;5007375;28;20297;-67
2023/10/02 03:31:16;;;;;;;18.02;9.18;;;;;;;;;;5013967;28;20171;-67
2023/10/02 03:33:42;;;;;;;21.08;9.18;;;;;;;;;;5013728;28;20187;-68
2023/10/02 03:36:10;;;;;;;18.52;9.85;;;;;;;;;;5012545;28;20190;-68
2023/10/02 03:38:42;;;;;;;20.90;10.32;;;;;;;;;;5011942;28;20186;-67
2023/10/02 03:41:11;;;;;;;21.05;10.13;;;;;;;;;;5012984;28;20187;-68
2023/10/02 03:43:46;;;;;;;18.55;10.00;;;;;;;;;;5011797;28;20234;-68
2023/10/02 03:46:35;;;;;;;20.27;8.75;;;;;;;;;;5007196;28;20673;-67
2023/10/02 03:49:01;;;;;;;19.27;9.02;;;;;;;;;;5007977;28;20688;-66
2023/10/02 03:51:40;;;;;;;19.10;10.20;;;;;;;;;;5013467;28;20179;-68
2023/10/02 03:54:21;;;;;;;19.15;9.23;;;;;;;;;;5010689;28;20675;-68
2023/10/02 03:56:50;;;;;;;20.58;9.98;;;;;;;;;;5010308;28;20273;-67
2023/10/02 03:59:21;;;;;;;22.75;10.45;;;;;;;;;;5012036;28;20257;-68
2023/10/02 04:01:47;;;;;;;19.55;10.23;;;;;;;;;;5013292;28;20222;-67
2023/10/02 04:04:19;;;;;;;20.92;9.93;;;;;;;;;;5008980;28;20222;-68
2023/10/02 04:06:50;;;;;;;24.27;11.65;;;;;;;;;;5011002;28;20214;-66
2023/10/02 04:11:45;;;;;;;17.80;9.45;;;;;;;;;;5012802;28;20269;-67
2023/10/02 04:14:19;;;;;;;19.08;10.20;;;;;;;;;;5010142;28;20662;-69
2023/10/02 04:16:48;;;;;;;19.90;10.15;;;;;;;;;;5005299;28;20182;-67
2023/10/02 04:19:23;;;;;;;22.27;10.27;;;;;;;;;;5025320;28;20179;-67
2023/10/02 04:21:48;;;;;;;18.73;9.90;;;;;;;;;;5010546;28;20238;-66
2023/10/02 04:24:14;;;;;;;18.45;9.32;;;;;;;;;;5009760;28;20246;-67
2023/10/02 04:26:44;;;;;;;20.60;8.82;;;;;;;;;;5012064;28;20315;-67
2023/10/02 04:29:28;;;;;;;22.70;10.07;;;;;;;;;;5011583;28;20207;-67
2023/10/02 04:32:15;;;;;;;14.65;8.68;;;;;;;;;;5010695;28;20728;-67
2023/10/02 04:35:03;;;;;;;17.92;9.30;;;;;;;;;;5012099;28;20199;-68
2023/10/02 04:37:31;;;;;;;18.75;9.35;;;;;;;;;;5009774;28;20225;-68
2023/10/02 04:42:25;;;;;;;23.13;10.77;;;;;;;;;;5008116;28;20564;-68
2023/10/02 04:44:56;;;;;;;17.77;9.88;;;;;;;;;;5008803;28;20674;-67
2023/10/02 04:47:23;;;;;;;23.10;10.93;;;;;;;;;;5009002;28;20681;-67
2023/10/02 04:55:24;;;;;;;21.55;9.93;;;;;;;;;;5011572;28;20214;-67
2023/10/02 04:57:50;;;;;;;20.60;9.23;;;;;;;;;;5011331;28;20575;-67
2023/10/02 05:03:24;;;;;;;21.88;11.45;;;;;;;;;;4985744;28;20629;-66
2023/10/02 05:05:51;;;;;;;24.17;10.63;;;;;;;;;;5008779;28;20236;-66
2023/10/02 05:08:31;;;;;;;21.52;10.75;;;;;;;;;;5011685;28;20471;-67
2023/10/02 05:11:08;;;;;;;20.33;9.93;;;;;;;;;;5009483;28;20175;-66
2023/10/02 05:16:32;;;;;;;22.77;11.20;;;;;;;;;;5009392;28;20202;-67
2023/10/02 05:18:58;;;;;;;24.13;11.15;;;;;;;;;;5007752;28;20184;-68
2023/10/02 05:21:36;;;;;;;31.30;12.65;;;;;;;;;;5008544;28;20189;-68
2023/10/02 05:24:04;;;;;;;20.40;11.05;;;;;;;;;;5009303;28;20222;-68
2023/10/02 05:26:32;;;;;;;27.40;11.00;;;;;;;;;;5008173;28;20187;-67
2023/10/02 05:28:58;;;;;;;28.67;11.38;;;;;;;;;;5004951;28;20206;-67
2023/10/02 05:31:23;;;;;;;23.13;11.18;;;;;;;;;;5011012;28;20234;-67
2023/10/02 05:33:48;;;;;;;17.95;9.85;;;;;;;;;;5005801;28;20195;-67
2023/10/02 05:36:19;;;;;;;20.92;11.30;;;;;;;;;;5005271;28;20173;-67
2023/10/02 05:39:16;;;;;;;22.67;11.38;;;;;;;;;;5009252;28;20185;-68
2023/10/02 05:41:41;;;;;;;19.95;10.57;;;;;;;;;;5010023;28;20186;-67
2023/10/02 05:44:13;;;;;;;21.55;10.13;;;;;;;;;;5011612;28;20201;-68
2023/10/02 05:46:55;;;;;;;23.73;12.15;;;;;;;;;;5012182;28;20202;-68
2023/10/02 05:49:23;;;;;;;27.00;13.65;;;;;;;;;;5009587;28;20186;-67
2023/10/02 05:51:48;;;;;;;24.42;12.43;;;;;;;;;;5011410;28;20198;-67
2023/10/02 05:54:13;;;;;;;22.88;10.95;;;;;;;;;;5008299;28;20230;-67
2023/10/02 05:56:39;;;;;;;23.75;11.45;;;;;;;;;;5010379;28;20167;-67
2023/10/02 05:59:04;;;;;;;24.02;10.80;;;;;;;;;;5011716;28;20186;-68
2023/10/02 06:01:34;;;;;;;29.67;11.85;;;;;;;;;;5008075;28;20179;-67
2023/10/02 06:04:04;;;;;;;23.23;11.57;;;;;;;;;;5008798;28;20217;-68
2023/10/02 06:06:35;;;;;;;20.83;10.38;;;;;;;;;;5010049;28;20286;-68
2023/10/02 06:09:03;;;;;;;17.98;10.00;;;;;;;;;;5011930;28;20721;-68
2023/10/02 06:11:32;;;;;;;21.65;10.82;;;;;;;;;;5010069;28;20182;-68
2023/10/02 06:14:09;;;;;;;23.08;9.63;;;;;;;;;;5010314;28;20728;-68
2023/10/02 06:16:35;;;;;;;22.35;11.43;;;;;;;;;;5003589;28;20723;-68
2023/10/02 06:19:06;;;;;;;20.65;11.40;;;;;;;;;;5003970;28;20174;-68
2023/10/02 06:21:33;;;;;;;20.80;11.13;;;;;;;;;;5019562;28;20187;-68
2023/10/02 06:23:58;;;;;;;25.02;11.35;;;;;;;;;;5008641;28;20211;-68
2023/10/02 06:26:29;;;;;;;26.55;12.43;;;;;;;;;;5010185;28;20539;-68
2023/10/02 06:29:13;;;;;;;23.83;11.07;;;;;;;;;;5011510;28;20205;-68
2023/10/02 06:31:41;;;;;;;21.33;10.30;;;;;;;;;;5009710;28;20192;-68
2023/10/02 06:34:08;;;;;;;21.48;11.13;;;;;;;;;;5010766;28;20254;-66
2023/10/02 06:36:45;;;;;;;22.02;10.82;;;;;;;;;;5005139;28;20747;-68
2023/10/02 06:39:10;;;;;;;18.90;9.70;;;;;;;;;;5005262;28;20616;-66
2023/10/02 06:41:36;;;;;;;23.77;12.45;;;;;;;;;;5010396;28;21291;-66
2023/10/02 06:44:14;;;;;;;23.02;12.43;;;;;;;;;;5010922;28;20230;-67
2023/10/02 06:46:52;;;;;;;22.05;11.90;;;;;;;;;;5009318;28;20186;-67
2023/10/02 06:49:17;;;;;;;22.15;10.38;;;;;;;;;;5009188;28;20704;-67
2023/10/02 06:51:42;;;;;;;19.83;8.95;;;;;;;;;;5006996;28;20182;-65
2023/10/02 06:54:07;;;;;;;21.10;10.55;;;;;;;;;;5007309;28;20463;-67
2023/10/02 06:56:33;;;;;;;20.95;9.95;;;;;;;;;;5003377;28;20180;-67
2023/10/02 06:58:59;;;;;;;19.60;9.82;;;;;;;;;;5010337;28;20314;-66
2023/10/02 07:01:27;;;;;;;18.58;9.98;;;;;;;;;;5008143;28;20664;-67
2023/10/02 07:03:52;;;;;;;19.70;10.20;;;;;;;;;;5008678;28;20588;-67
2023/10/02 07:06:19;;;;;;;23.17;10.93;;;;;;;;;;5007125;28;20187;-67
2023/10/02 07:08:47;;;;;;;19.92;9.75;;;;;;;;;;5010444;28;20286;-67
2023/10/02 07:11:13;;;;;;;20.33;9.75;;;;;;;;;;5010828;28;20183;-67
2023/10/02 07:13:51;;;;;;;20.38;10.20;;;;;;;;;;5008522;28;20203;-67
2023/10/02 07:16:17;;;;;;;17.73;9.57;;;;;;;;;;5006721;28;20179;-67
2023/10/02 07:18:49;;;;;;;20.42;10.43;;;;;;;;;;5009984;28;20202;-68
2023/10/02 07:21:21;;;;;;;17.42;9.82;;;;;;;;;;5008863;28;20189;-68
2023/10/02 07:23:46;;;;;;;24.40;10.73;;;;;;;;;;5002880;28;20739;-68
2023/10/02 07:26:19;;;;;;;21.48;10.63;;;;;;;;;;5012217;28;20183;-68
2023/10/02 07:28:50;;;;;;;19.75;10.02;;;;;;;;;;5014357;28;20210;-67
2023/10/02 07:31:20;;;;;;;18.45;9.43;;;;;;;;;;5013121;28;20261;-68
2023/10/02 07:33:45;;;;;;;19.08;10.15;;;;;;;;;;5005944;28;20676;-68
2023/10/02 07:36:14;;;;;;;20.50;9.63;;;;;;;;;;5010543;28;20183;-68
2023/10/02 07:38:42;;;;;;;19.20;8.38;;;;;;;;;;5014084;28;20182;-68
2023/10/02 07:41:07;;;;;;;16.75;8.73;;;;;;;;;;5014150;28;20199;-68
2023/10/02 07:43:33;;;;;;;19.55;9.38;;;;;;;;;;5013194;28;20208;-68
2023/10/02 07:46:14;;;;;;;18.90;9.80;;;;;;;;;;5012544;28;20241;-68
2023/10/02 07:48:39;;;;;;;18.05;9.90;;;;;;;;;;5014278;28;20214;-68
2023/10/02 07:51:11;;;;;;;18.33;9.63;;;;;;;;;;5009036;28;20179;-68
2023/10/02 07:53:39;;;;;;;19.85;9.15;;;;;;;;;;5013244;28;20209;-68
2023/10/02 07:56:05;;;;;;;22.83;10.32;;;;;;;;;;5010199;28;20548;-66
2023/10/02 07:58:31;;;;;;;20.48;9.68;;;;;;;;;;5012704;28;20179;-67
2023/10/02 08:00:56;;;;;;;19.80;10.07;;;;;;;;;;5014195;28;20622;-67
2023/10/02 08:03:42;;;;;;;18.17;9.48;;;;;;;;;;5013598;28;20286;-67
2023/10/02 08:11:40;;;;;;;17.90;9.30;;;;;;;;;;5009284;28;20210;-67
2023/10/02 08:14:06;;;;;;;17.65;9.13;;;;;;;;;;5012561;28;20674;-67
2023/10/02 08:16:34;;;;;;;18.52;9.18;;;;;;;;;;5013559;28;20179;-67
2023/10/02 08:19:10;;;;;;;20.25;9.32;;;;;;;;;;5013868;28;20233;-67
2023/10/02 08:21:35;;;;;;;22.77;9.40;;;;;;;;;;5011967;28;20656;-66
2023/10/02 08:24:03;;;;;;;18.55;9.90;;;;;;;;;;5012973;28;20250;-68
2023/10/02 08:26:29;;;;;;;19.23;10.57;;;;;;;;;;5013399;28;20660;-67
2023/10/02 08:28:54;;;;;;;18.67;9.30;;;;;;;;;;5011050;28;20202;-67
2023/10/02 08:31:19;;;;;;;17.25;9.15;;;;;;;;;;5004593;28;20190;-68
2023/10/02 08:33:45;;;;;;;18.20;9.40;;;;;;;;;;5012581;28;20214;-67
2023/10/02 08:36:12;;;;;;;19.13;9.40;;;;;;;;;;5012901;28;20171;-67
2023/10/02 08:38:40;;;;;;;16.45;9.85;;;;;;;;;;5012344;28;20191;-67
2023/10/02 08:41:08;;;;;;;18.80;9.48;;;;;;;;;;5012188;28;20279;-67
2023/10/02 08:43:41;;;;;;;17.13;10.07;;;;;;;;;;5012392;28;20806;-67
2023/10/02 08:46:07;;;;;;;24.63;9.38;;;;;;;;;;5012949;28;20187;-66
2023/10/02 08:48:34;;;;;;;17.25;9.20;;;;;;;;;;5008848;28;20666;-67
2023/10/02 08:51:00;;;;;;;19.85;9.60;;;;;;;;;;5011676;28;20183;-67
2023/10/02 08:53:27;;;;;;;18.88;9.98;;;;;;;;;;5011889;28;20575;-67
2023/10/02 08:56:21;;;;;;;21.98;9.90;;;;;;;;;;5012855;28;20182;-67
2023/10/02 09:01:34;;;;;;;17.30;9.30;;;;;;;;;;5010279;28;20193;-67
2023/10/02 09:04:51;;;;;;;16.80;10.23;;;;;;;;;;5002492;28;20199;-67
2023/10/02 09:07:14;;;;;;;17.48;10.13;;;;;;;;;;5006814;28;20613;-67
2023/10/02 09:09:45;;;;;;;21.83;10.40;;;;;;;;;;5002372;28;20217;-66
2023/10/02 09:12:14;;;;;;;18.00;9.95;;;;;;;;;;5009853;28;20205;-66
2023/10/02 09:14:40;;;;;;;18.00;10.50;;;;;;;;;;5015138;28;20213;-67
2023/10/02 09:17:24;;;;;;;19.70;10.13;;;;;;;;;;5011249;28;20201;-67
2023/10/02 09:20:03;;;;;;;20.02;9.85;;;;;;;;;;5010787;28;20179;-66
2023/10/02 09:22:29;;;;;;;18.25;9.30;;;;;;;;;;5011610;28;20297;-66
2023/10/02 09:25:48;;;;;;;20.98;11.90;;;;;;;;;;5009922;28;20230;-67
2023/10/02 09:27:58;;;;;;;18.70;9.98;;;;;;;;;;5003388;28;20685;-67
2023/10/02 09:33:05;;;;;;;21.38;10.02;;;;;;;;;;5006725;28;20274;-66
2023/10/02 09:35:40;;;;;;;18.67;9.23;;;;;;;;;;5011591;28;20171;-66
2023/10/02 09:38:10;;;;;;;18.23;9.93;;;;;;;;;;5028788;22;20713;-69
2023/10/02 09:40:59;;;;;;;19.52;10.00;;;;;;;;;;5027435;28;20178;-70
2023/10/02 09:43:28;;;;;;;16.42;9.65;;;;;;;;;;5020759;28;20560;-70
2023/10/02 09:45:55;;;;;;;17.95;10.18;;;;;;;;;;5029885;28;20173;-69
2023/10/02 09:51:14;;;;;;;17.73;9.95;;;;;;;;;;5008322;28;20676;-70
2023/10/02 09:53:41;;;;;;;20.10;10.00;;;;;;;;;;5010869;28;20202;-70
2023/10/02 09:56:09;;;;;;;17.42;10.23;;;;;;;;;;5007961;28;20254;-70
2023/10/02 09:58:47;;;;;;;18.33;9.32;;;;;;;;;;5010083;28;20673;-69
2023/10/02 10:01:33;;;;;;;16.92;9.00;;;;;;;;;;5002670;28;20672;-70
2023/10/02 10:03:59;;;;;;;17.13;8.85;;;;;;;;;;5007141;28;20617;-70
2023/10/02 10:06:36;;;;;;;19.02;9.32;;;;;;;;;;5008562;28;20222;-70
2023/10/02 10:11:42;;;;;;;16.75;8.77;;;;;;;;;;5005281;28;20650;-69
2023/10/02 10:14:35;;;;;;;19.45;8.88;;;;;;;;;;5005445;28;20244;-70
2023/10/02 10:17:12;;;;;;;16.30;9.00;;;;;;;;;;5007717;28;20182;-68
2023/10/02 10:19:38;;;;;;;15.48;9.50;;;;;;;;;;5003475;28;20183;-68
2023/10/02 10:22:10;;;;;;;18.40;10.68;;;;;;;;;;5007467;28;20195;-68
2023/10/02 10:24:57;;;;;;;18.45;9.88;;;;;;;;;;5008109;28;20195;-68
2023/10/02 10:27:37;;;;;;;15.98;9.27;;;;;;;;;;5007772;28;20203;-68
2023/10/02 10:35:36;;;;;;;16.00;9.35;;;;;;;;;;5009214;28;20657;-68
2023/10/02 10:38:07;;;;;;;16.83;8.30;;;;;;;;;;5004905;28;20220;-68
2023/10/02 10:40:44;;;;;;;21.45;10.70;;;;;;;;;;5003490;28;20191;-69
2023/10/02 10:43:16;;;;;;;19.00;11.05;;;;;;;;;;5013686;28;20175;-68
2023/10/02 10:45:41;;;;;;;16.85;9.00;;;;;;;;;;5000256;28;20175;-68
2023/10/02 10:48:18;;;;;;;17.25;9.15;;;;;;;;;;5008370;28;20221;-68
2023/10/02 10:50:56;;;;;;;18.30;9.65;;;;;;;;;;5004998;28;20716;-68
2023/10/02 10:53:32;;;;;;;16.63;9.10;;;;;;;;;;5002214;28;20218;-68
2023/10/02 10:56:05;;;;;;;17.20;8.48;;;;;;;;;;5008799;28;20189;-68
2023/10/02 10:58:33;;;;;;;15.27;9.70;;;;;;;;;;5003113;28;20555;-68
2023/10/02 11:00:58;;;;;;;20.08;9.35;;;;;;;;;;5010326;28;20190;-68
2023/10/02 11:03:26;;;;;;;16.85;9.55;;;;;;;;;;5004356;28;20187;-69
2023/10/02 11:05:51;;;;;;;24.65;10.90;;;;;;;;;;5012113;28;20317;-68
2023/10/02 11:08:28;;;;;;;17.30;9.75;;;;;;;;;;5007662;28;20592;-69
2023/10/02 11:11:00;;;;;;;19.75;10.05;;;;;;;;;;5011130;28;20182;-70
2023/10/02 11:13:26;;;;;;;17.58;9.70;;;;;;;;;;5007887;28;20175;-69
2023/10/02 11:15:59;;;;;;;17.85;9.40;;;;;;;;;;5013324;28;20171;-69
2023/10/02 11:18:26;;;;;;;14.75;8.90;;;;;;;;;;5007021;28;20199;-69
2023/10/02 11:20:54;;;;;;;18.35;9.52;;;;;;;;;;5011945;28;20258;-69
2023/10/02 11:23:38;;;;;;;18.35;9.27;;;;;;;;;;5007585;28;20525;-68
2023/10/02 11:26:11;;;;;;;17.20;9.40;;;;;;;;;;5012261;28;20186;-68
2023/10/02 11:28:37;;;;;;;18.42;9.45;;;;;;;;;;5017343;28;20703;-69
2023/10/02 11:34:04;;;;;;;14.38;9.13;;;;;;;;;;4998099;28;20237;-69
2023/10/02 11:36:34;;;;;;;19.00;10.35;;;;;;;;;;5012022;28;20171;-69
2023/10/02 11:38:59;;;;;;;16.20;10.02;;;;;;;;;;5010992;28;20678;-69
2023/10/02 11:41:27;;;;;;;20.75;10.85;;;;;;;;;;5005552;28;20183;-68
2023/10/02 11:43:54;;;;;;;18.75;10.73;;;;;;;;;;5012509;28;20266;-69
2023/10/02 11:46:20;;;;;;;16.23;8.88;;;;;;;;;;5008402;28;20221;-68
2023/10/02 11:48:49;;;;;;;16.88;9.75;;;;;;;;;;5012757;28;20752;-69
2023/10/02 11:51:14;;;;;;;18.70;9.63;;;;;;;;;;5010035;28;20183;-69
2023/10/02 11:53:39;;;;;;;22.63;10.07;;;;;;;;;;5018043;28;20178;-70
2023/10/02 11:56:04;;;;;;;15.03;8.67;;;;;;;;;;5016206;28;20413;-69
2023/10/02 11:58:30;;;;;;;16.50;9.60;;;;;;;;;;5016797;28;21129;-68
2023/10/02 12:00:57;;;;;;;14.50;8.32;;;;;;;;;;5010874;28;20441;-69
2023/10/02 12:03:22;;;;;;;12.68;7.28;;;;;;;;;;5010633;28;20179;-69
2023/10/02 12:05:50;;;;;;;16.13;9.02;;;;;;;;;;5005096;28;20242;-69
2023/10/02 12:08:20;;;;;;;18.70;8.52;;;;;;;;;;5011183;28;20214;-69
2023/10/02 12:10:45;;;;;;;14.00;7.70;;;;;;;;;;5005362;28;20209;-69
2023/10/02 12:13:10;;;;;;;15.85;8.45;;;;;;;;;;5011077;28;20658;-69
2023/10/02 12:15:35;;;;;;;15.20;7.93;;;;;;;;;;5009104;28;20175;-69
2023/10/02 12:18:03;;;;;;;17.00;8.70;;;;;;;;;;5010007;28;20439;-69
2023/10/02 12:20:30;;;;;;;17.55;7.47;;;;;;;;;;5009585;28;20431;-69
2023/10/02 12:22:55;;;;;;;14.57;8.18;;;;;;;;;;5008515;28;20178;-69
2023/10/02 12:25:21;;;;;;;13.37;7.33;;;;;;;;;;5011007;28;20557;-68
2023/10/02 12:27:48;;;;;;;16.53;8.50;;;;;;;;;;5007916;28;20817;-68
2023/10/02 12:30:13;;;;;;;15.70;7.65;;;;;;;;;;5010277;28;20903;-69
2023/10/02 12:32:39;;;;;;;14.32;8.35;;;;;;;;;;5003215;28;20262;-69
2023/10/02 12:35:05;;;;;;;17.35;8.05;;;;;;;;;;5006453;28;20596;-69
2023/10/02 12:37:31;;;;;;;14.95;8.40;;;;;;;;;;5010500;28;20203;-69
2023/10/02 12:39:57;;;;;;;15.35;8.68;;;;;;;;;;5010357;28;20186;-70
2023/10/02 12:42:22;;;;;;;14.63;7.30;;;;;;;;;;5007603;28;20180;-70
2023/10/02 12:44:48;;;;;;;14.43;7.77;;;;;;;;;;5008852;28;20623;-69
2023/10/02 12:47:13;;;;;;;11.43;7.57;;;;;;;;;;5008496;28;20500;-69
2023/10/02 12:49:39;;;;;;;13.70;7.35;;;;;;;;;;5009333;28;20885;-70
2023/10/02 12:52:05;;;;;;;16.35;7.88;;;;;;;;;;5008788;28;20199;-69
2023/10/02 12:54:31;;;;;;;19.00;8.48;;;;;;;;;;5009720;28;20171;-69
2023/10/02 12:56:56;;;;;;;13.85;7.93;;;;;;;;;;5012746;28;20697;-70
2023/10/02 12:59:23;;;;;;;15.43;7.53;;;;;;;;;;5011792;28;20273;-69
2023/10/02 13:01:50;;;;;;;17.65;9.07;;;;;;;;;;5014281;28;20415;-69
2023/10/02 13:04:15;;;;;;;18.10;9.75;;;;;;;;;;5012327;28;20170;-69
2023/10/02 13:06:41;;;;;;;16.58;9.57;;;;;;;;;;5010434;28;20646;-69
2023/10/02 13:09:14;;;;;;;17.25;8.90;;;;;;;;;;5010458;28;20233;-69
2023/10/02 13:11:39;;;;;;;16.92;9.43;;;;;;;;;;5009260;28;20652;-69
2023/10/02 13:14:06;;;;;;;19.77;9.77;;;;;;;;;;5011762;28;20171;-69
2023/10/02 13:16:31;;;;;;;18.98;10.05;;;;;;;;;;5016776;28;20178;-69
2023/10/02 13:18:56;;;;;;;16.23;8.77;;;;;;;;;;5021107;28;20204;-69
2023/10/02 13:21:22;;;;;;;16.93;9.23;;;;;;;;;;5007579;28;20561;-69
2023/10/02 13:23:48;;;;;;;17.15;8.40;;;;;;;;;;5005006;28;20507;-69
2023/10/02 13:26:16;;;;;;;19.23;9.50;;;;;;;;;;5011791;28;20170;-69
2023/10/02 13:28:47;;;;;;;12.40;7.95;;;;;;;;;;5008444;28;20565;-69
2023/10/02 13:31:13;;;;;;;20.50;10.10;;;;;;;;;;5006850;28;20254;-69
2023/10/02 13:33:46;;;;;;;21.27;9.13;;;;;;;;;;5015247;28;20703;-69
2023/10/02 13:36:13;;;;;;;19.80;8.93;;;;;;;;;;5005789;28;20266;-69
2023/10/02 13:38:40;;;;;;;16.13;8.88;;;;;;;;;;5009147;28;20215;-69
2023/10/02 13:41:06;;;;;;;16.45;9.68;;;;;;;;;;5008624;28;20184;-69
2023/10/02 13:43:32;;;;;;;17.90;8.73;;;;;;;;;;5007678;28;20280;-69
2023/10/02 13:45:57;;;;;;;21.88;9.50;;;;;;;;;;5009397;28;20183;-69
2023/10/02 13:48:22;;;;;;;17.00;9.02;;;;;;;;;;5005984;28;20210;-69
2023/10/02 13:50:49;;;;;;;16.63;9.20;;;;;;;;;;5010131;28;20233;-69
2023/10/02 13:53:14;;;;;;;16.17;9.20;;;;;;;;;;5006588;28;20179;-70
2023/10/02 13:55:39;;;;;;;18.50;9.17;;;;;;;;;;5010211;28;20697;-69
2023/10/02 13:58:06;;;;;;;19.63;8.60;;;;;;;;;;5007281;28;20433;-69
2023/10/02 14:00:35;;;;;;;18.75;9.00;;;;;;;;;;5008900;28;20896;-70
2023/10/02 14:03:01;;;;;;;15.95;8.15;;;;;;;;;;5010129;28;20179;-69
2023/10/02 14:05:29;;;;;;;18.73;8.88;;;;;;;;;;5009038;28;20183;-69
2023/10/02 14:07:54;;;;;;;13.75;8.15;;;;;;;;;;5009874;28;20203;-69
2023/10/02 14:10:19;;;;;;;16.37;9.40;;;;;;;;;;5010878;28;20638;-69
2023/10/02 14:12:45;;;;;;;17.52;8.98;;;;;;;;;;5004406;28;20435;-69
2023/10/02 14:15:13;;;;;;;20.42;9.90;;;;;;;;;;5014954;28;20496;-70
2023/10/02 14:17:39;;;;;;;15.25;8.65;;;;;;;;;;5012109;28;20191;-70
2023/10/02 14:20:06;;;;;;;17.60;8.90;;;;;;;;;;5007303;28;20237;-70
2023/10/02 14:22:33;;;;;;;16.60;8.88;;;;;;;;;;5007623;28;20179;-70
2023/10/02 14:25:00;;;;;;;16.27;8.60;;;;;;;;;;5009159;28;20210;-70
2023/10/02 14:27:25;;;;;;;11.60;6.88;;;;;;;;;;5007952;28;20191;-70
2023/10/02 14:29:50;;;;;;;14.90;8.82;;;;;;;;;;5008092;28;20201;-70
2023/10/02 14:32:16;;;;;;;14.38;8.27;;;;;;;;;;5010410;28;20266;-70
2023/10/02 14:34:41;;;;;;;16.27;8.70;;;;;;;;;;5008628;28;20171;-70
2023/10/02 14:37:06;;;;;;;15.80;8.30;;;;;;;;;;5006850;28;20234;-70
2023/10/02 14:39:32;;;;;;;13.83;8.50;;;;;;;;;;5010024;28;20427;-70
2023/10/02 14:41:57;;;;;;;14.57;8.55;;;;;;;;;;5018214;28;20478;-70
2023/10/02 14:44:23;;;;;;;13.45;6.75;;;;;;;;;;5018172;28;20175;-70
2023/10/02 14:46:48;;;;;;;15.13;7.40;;;;;;;;;;5012768;28;20195;-70
2023/10/02 14:49:14;;;;;;;11.52;6.05;;;;;;;;;;5004285;28;20210;-70
2023/10/02 14:51:40;;;;;;;12.77;5.83;;;;;;;;;;5006170;28;20179;-70
2023/10/02 14:54:07;;;;;;;10.93;5.55;;;;;;;;;;5006156;28;20479;-70
2023/10/02 14:56:32;;;;;;;11.25;6.40;;;;;;;;;;5006495;28;20204;-70
2023/10/02 14:58:58;;;;;;;16.43;8.13;;;;;;;;;;5005027;28;20605;-70
2023/10/02 15:01:24;;;;;;;13.60;7.35;;;;;;;;;;5005849;28;20462;-69
2023/10/02 15:03:50;;;;;;;15.38;7.90;;;;;;;;;;5004274;28;20638;-70
2023/10/02 15:06:15;;;;;;;13.27;7.65;;;;;;;;;;5002968;28;20184;-70
2023/10/02 15:08:40;;;;;;;13.18;7.10;;;;;;;;;;5010637;28;20540;-69
2023/10/02 15:11:06;;;;;;;14.30;7.45;;;;;;;;;;5008028;28;20197;-70
2023/10/02 15:13:31;;;;;;;17.33;7.65;;;;;;;;;;5007271;28;20167;-70
2023/10/02 15:15:57;;;;;;;14.82;6.60;;;;;;;;;;5008529;28;20187;-69
2023/10/02 15:18:22;;;;;;;10.48;6.70;;;;;;;;;;5008948;28;20690;-69
2023/10/02 15:20:48;;;;;;;14.93;7.35;;;;;;;;;;5008033;28;20179;-69
2023/10/02 15:23:13;;;;;;;15.18;7.60;;;;;;;;;;5010551;28;20651;-69